createdAt,value
2023-04-17T00:01:40.211Z,20.48
2023-04-17T00:04:10.998Z,24.00
2023-04-17T00:06:38.738Z,22.63
2023-04-17T00:09:06.118Z,22.55
2023-04-17T00:11:32.850Z,25.40
2023-04-17T00:13:59.610Z,23.73
2023-04-17T00:16:27.282Z,23.38
2023-04-17T00:18:55.585Z,21.08
2023-04-17T00:21:22.719Z,24.35
2023-04-17T00:23:49.705Z,24.00
2023-04-17T00:26:16.612Z,22.73
2023-04-17T00:28:43.424Z,21.98
2023-04-17T00:31:10.163Z,25.77
2023-04-17T00:33:36.990Z,26.48
2023-04-17T00:36:04.011Z,23.13
2023-04-17T00:38:30.731Z,26.77
2023-04-17T00:40:57.390Z,24.48
2023-04-17T00:43:24.090Z,24.13
2023-04-17T00:45:51.743Z,26.50
2023-04-17T00:48:18.736Z,27.65
2023-04-17T00:50:45.850Z,26.60
2023-04-17T00:53:13.290Z,24.30
2023-04-17T00:55:43.300Z,23.95
2023-04-17T00:58:11.439Z,26.08
2023-04-17T01:00:38.120Z,22.42
2023-04-17T01:03:05.694Z,26.23
2023-04-17T01:05:35.369Z,29.38
2023-04-17T01:08:02.159Z,25.85
2023-04-17T01:10:28.931Z,25.02
2023-04-17T01:13:07.141Z,27.25
2023-04-17T01:18:02.408Z,24.45
2023-04-17T01:20:32.645Z,24.63
2023-04-17T01:23:00.508Z,29.55
2023-04-17T01:25:28.509Z,24.58
2023-04-17T01:27:56.335Z,27.35
2023-04-17T01:30:23.257Z,27.13
2023-04-17T01:32:50.126Z,24.63
2023-04-17T01:35:16.882Z,27.13
2023-04-17T01:37:43.680Z,26.90
2023-04-17T01:40:10.818Z,24.85
2023-04-17T01:42:37.545Z,25.70
2023-04-17T01:45:06.077Z,27.73
2023-04-17T01:47:33.044Z,25.88
2023-04-17T01:49:59.814Z,27.77
2023-04-17T01:52:26.603Z,25.90
2023-04-17T01:54:53.295Z,27.08
2023-04-17T01:57:20.030Z,24.10
2023-04-17T01:59:46.761Z,28.60
2023-04-17T02:02:13.776Z,26.08
2023-04-17T02:04:40.795Z,26.85
2023-04-17T02:07:07.761Z,28.25
2023-04-17T02:09:34.448Z,23.92
2023-04-17T02:12:01.712Z,26.38
2023-04-17T02:14:30.423Z,28.05
2023-04-17T02:16:57.516Z,25.63
2023-04-17T02:19:24.268Z,31.02
2023-04-17T02:21:51.047Z,29.98
2023-04-17T02:24:17.705Z,27.80
2023-04-17T02:26:45.112Z,27.05
2023-04-17T02:29:12.140Z,28.48
2023-04-17T02:31:41.464Z,28.95
2023-04-17T02:34:08.256Z,31.13
2023-04-17T02:36:35.473Z,32.08
2023-04-17T02:39:02.198Z,27.42
2023-04-17T02:41:28.939Z,27.38
2023-04-17T02:43:56.683Z,30.58
2023-04-17T02:46:23.403Z,30.90
2023-04-17T02:48:50.145Z,29.27
2023-04-17T02:51:16.877Z,28.75
2023-04-17T02:53:43.637Z,30.40
2023-04-17T02:56:10.425Z,28.23
2023-04-17T02:58:37.559Z,31.67
2023-04-17T03:01:04.344Z,28.75
2023-04-17T03:03:34.756Z,29.38
2023-04-17T03:06:02.154Z,30.75
2023-04-17T03:08:32.574Z,28.52
2023-04-17T03:10:59.738Z,30.30
2023-04-17T03:13:26.421Z,28.90
2023-04-17T03:15:53.274Z,29.00
2023-04-17T03:18:20.083Z,28.05
2023-04-17T03:20:46.865Z,30.02
2023-04-17T03:23:13.602Z,32.97
2023-04-17T03:25:40.525Z,33.28
2023-04-17T03:28:07.256Z,32.53
2023-04-17T03:30:34.070Z,32.78
2023-04-17T03:33:00.872Z,30.88
2023-04-17T03:35:27.917Z,32.92
2023-04-17T03:37:54.697Z,33.28
2023-04-17T03:40:21.461Z,36.70
2023-04-17T03:42:48.537Z,32.05
2023-04-17T03:45:16.856Z,34.92
2023-04-17T03:47:43.795Z,37.20
2023-04-17T03:50:10.885Z,32.53
2023-04-17T03:52:37.627Z,31.77
2023-04-17T03:55:04.943Z,31.10
2023-04-17T03:57:31.772Z,32.65
2023-04-17T03:59:58.579Z,37.33
2023-04-17T04:02:25.642Z,33.72
2023-04-17T04:04:53.590Z,34.92
2023-04-17T04:07:21.535Z,34.88
2023-04-17T04:09:48.323Z,36.53
2023-04-17T04:12:15.239Z,36.42
2023-04-17T04:14:42.269Z,36.67
2023-04-17T04:17:09.160Z,35.33
2023-04-17T04:19:36.030Z,34.25
2023-04-17T04:22:06.249Z,38.00
2023-04-17T04:24:33.993Z,32.88
2023-04-17T04:27:04.902Z,35.15
2023-04-17T04:29:32.099Z,36.38
2023-04-17T04:31:59.510Z,35.78
2023-04-17T04:34:29.680Z,36.45
2023-04-17T04:36:59.488Z,39.70
2023-04-17T04:39:26.307Z,35.90
2023-04-17T04:41:53.067Z,32.95
2023-04-17T04:44:19.975Z,35.65
2023-04-17T04:46:46.906Z,33.75
2023-04-17T04:49:13.869Z,35.92
2023-04-17T04:51:40.774Z,38.72
2023-04-17T04:54:07.488Z,35.38
2023-04-17T04:56:34.477Z,34.58
2023-04-17T04:59:01.372Z,32.65
2023-04-17T05:01:29.905Z,33.95
2023-04-17T05:03:56.910Z,34.88
2023-04-17T05:06:23.945Z,29.92
2023-04-17T05:08:51.965Z,29.08
2023-04-17T05:11:18.874Z,27.50
2023-04-17T05:13:45.892Z,27.40
2023-04-17T05:16:12.748Z,28.52
2023-04-17T05:18:39.674Z,27.60
2023-04-17T05:21:06.368Z,29.08
2023-04-17T05:23:33.186Z,29.73
2023-04-17T05:25:59.858Z,25.35
2023-04-17T05:28:27.234Z,26.90
2023-04-17T05:30:54.072Z,26.15
2023-04-17T05:33:20.926Z,27.90
2023-04-17T05:35:47.612Z,25.38
2023-04-17T05:38:14.414Z,23.58
2023-04-17T05:40:41.125Z,25.60
2023-04-17T05:43:09.283Z,23.08
2023-04-17T05:45:36.285Z,23.25
2023-04-17T05:48:03.670Z,27.58
2023-04-17T05:50:30.463Z,22.48
2023-04-17T05:52:57.395Z,23.13
2023-04-17T05:55:24.191Z,20.10
2023-04-17T05:57:51.249Z,24.17
2023-04-17T06:00:18.757Z,22.30
2023-04-17T06:02:45.942Z,23.98
2023-04-17T06:05:12.970Z,21.83
2023-04-17T06:07:40.427Z,24.15
2023-04-17T06:10:08.966Z,23.08
2023-04-17T06:12:36.478Z,24.92
2023-04-17T06:15:04.460Z,22.83
2023-04-17T06:17:31.808Z,23.23
2023-04-17T06:19:58.610Z,22.90
2023-04-17T06:22:25.597Z,21.88
2023-04-17T06:24:52.401Z,30.67
2023-04-17T06:27:19.150Z,22.38
2023-04-17T06:29:46.064Z,23.70
2023-04-17T06:32:12.720Z,26.48
2023-04-17T06:34:48.941Z,21.48
2023-04-17T06:37:25.249Z,21.92
2023-04-17T06:39:52.017Z,24.42
2023-04-17T06:42:20.567Z,23.20
2023-04-17T06:44:47.279Z,23.17
2023-04-17T06:47:14.053Z,23.98
2023-04-17T06:49:40.917Z,21.83
2023-04-17T06:52:07.705Z,21.00
2023-04-17T06:54:34.426Z,24.17
2023-04-17T06:57:01.853Z,22.63
2023-04-17T06:59:28.568Z,22.60
2023-04-17T07:01:55.430Z,22.67
2023-04-17T07:04:22.265Z,21.92
2023-04-17T07:06:48.984Z,21.92
2023-04-17T07:09:16.450Z,22.58
2023-04-17T07:11:43.251Z,19.45
2023-04-17T07:14:11.594Z,17.65
2023-04-17T07:16:39.678Z,21.42
2023-04-17T07:19:06.393Z,21.48
2023-04-17T07:21:33.117Z,20.10
2023-04-17T07:23:59.923Z,19.58
2023-04-17T07:26:26.989Z,22.48
2023-04-17T07:28:53.745Z,18.75
2023-04-17T07:31:22.099Z,21.05
2023-04-17T07:33:49.251Z,21.48
2023-04-17T07:36:16.333Z,20.35
2023-04-17T07:38:43.091Z,18.67
2023-04-17T07:41:11.785Z,19.10
2023-04-17T07:43:38.636Z,21.10
2023-04-17T07:46:05.704Z,17.58
2023-04-17T07:48:32.642Z,18.15
2023-04-17T07:51:01.397Z,15.95
2023-04-17T07:53:29.079Z,16.58
2023-04-17T07:55:56.211Z,16.27
2023-04-17T07:58:24.087Z,14.68
2023-04-17T08:00:51.988Z,16.92
2023-04-17T08:03:24.257Z,16.33
2023-04-17T08:05:54.286Z,16.25
2023-04-17T08:08:22.834Z,16.95
2023-04-17T08:10:50.108Z,14.88
2023-04-17T08:13:16.886Z,15.35
2023-04-17T08:15:43.908Z,16.45
2023-04-17T08:18:10.837Z,14.60
2023-04-17T08:20:37.661Z,15.32
2023-04-17T08:23:05.161Z,17.00
2023-04-17T08:25:32.053Z,16.30
2023-04-17T08:27:58.904Z,13.02
2023-04-17T08:30:25.788Z,14.30
2023-04-17T08:32:52.585Z,13.63
2023-04-17T08:35:19.469Z,15.45
2023-04-17T08:37:49.029Z,13.93
2023-04-17T08:40:17.159Z,14.10
2023-04-17T08:42:44.403Z,16.75
2023-04-17T08:45:12.391Z,14.15
2023-04-17T08:47:40.542Z,12.93
2023-04-17T08:50:09.770Z,11.98
2023-04-17T08:52:50.153Z,12.30
2023-04-17T08:55:21.637Z,14.63
2023-04-17T09:00:31.621Z,13.15
2023-04-17T09:03:00.566Z,15.68
2023-04-17T09:05:36.622Z,14.55
2023-04-17T09:08:14.346Z,14.32
2023-04-17T09:13:09.828Z,13.15
2023-04-17T09:15:36.883Z,11.63
2023-04-17T09:18:04.167Z,10.70
2023-04-17T09:20:31.159Z,12.45
2023-04-17T09:23:02.977Z,10.88
2023-04-17T09:25:30.324Z,10.93
2023-04-17T09:28:11.554Z,15.77
2023-04-17T09:30:39.380Z,10.85
2023-04-17T09:33:08.488Z,10.93
2023-04-17T09:35:40.081Z,12.13
2023-04-17T09:38:07.432Z,10.80
2023-04-17T09:40:42.074Z,15.60
2023-04-17T09:43:10.676Z,10.27
2023-04-17T09:45:40.045Z,11.93
2023-04-17T09:48:10.168Z,12.52
2023-04-17T09:50:38.637Z,12.27
2023-04-17T09:53:07.689Z,15.05
2023-04-17T09:55:36.700Z,15.25
2023-04-17T09:58:05.513Z,12.25
2023-04-17T10:00:32.441Z,17.70
2023-04-17T10:03:00.205Z,12.93
2023-04-17T10:05:29.870Z,12.90
2023-04-17T10:07:57.362Z,13.25
2023-04-17T10:10:34.095Z,13.75
2023-04-17T10:13:03.128Z,12.60
2023-04-17T10:15:31.104Z,12.40
2023-04-17T10:18:21.584Z,12.70
2023-04-17T10:20:49.700Z,12.10
2023-04-17T10:23:35.807Z,13.57
2023-04-17T10:26:28.106Z,14.35
2023-04-17T10:28:57.866Z,13.55
2023-04-17T10:32:03.888Z,11.00
2023-04-17T10:34:37.669Z,11.43
2023-04-17T10:37:05.112Z,14.55
2023-04-17T10:40:00.820Z,12.60
2023-04-17T10:42:30.163Z,13.73
2023-04-17T10:44:59.883Z,13.40
2023-04-17T10:47:36.272Z,14.85
2023-04-17T10:50:07.616Z,12.57
2023-04-17T10:52:35.461Z,12.48
2023-04-17T10:55:23.084Z,12.15
2023-04-17T10:58:02.130Z,10.60
2023-04-17T11:00:35.855Z,13.25
2023-04-17T11:03:03.939Z,10.27
2023-04-17T11:05:31.940Z,11.43
2023-04-17T11:07:59.451Z,12.13
2023-04-17T11:10:26.632Z,11.80
2023-04-17T11:12:55.874Z,11.68
2023-04-17T11:15:30.097Z,11.90
2023-04-17T11:17:58.139Z,11.48
2023-04-17T11:20:26.840Z,10.18
2023-04-17T11:22:54.020Z,11.55
2023-04-17T11:25:27.947Z,10.82
2023-04-17T11:27:59.513Z,12.48
2023-04-17T11:30:38.268Z,11.02
2023-04-17T11:33:06.814Z,11.85
2023-04-17T11:35:36.099Z,12.27
2023-04-17T11:38:17.725Z,12.07
2023-04-17T11:40:51.754Z,11.25
2023-04-17T11:43:20.660Z,10.60
2023-04-17T11:45:50.913Z,11.13
2023-04-17T11:48:24.729Z,12.10
2023-04-17T11:50:55.926Z,11.15
2023-04-17T11:53:22.961Z,12.77
2023-04-17T11:56:14.282Z,10.15
2023-04-17T11:59:07.369Z,9.82
2023-04-17T12:01:34.252Z,11.20
2023-04-17T12:04:01.226Z,10.50
2023-04-17T12:06:38.169Z,9.40
2023-04-17T12:09:06.960Z,9.25
2023-04-17T12:11:34.456Z,9.70
2023-04-17T12:14:02.329Z,11.75
2023-04-17T12:16:29.720Z,10.77
2023-04-17T12:18:57.403Z,8.23
2023-04-17T12:21:24.301Z,10.50
2023-04-17T12:23:51.663Z,7.95
2023-04-17T12:26:18.551Z,8.63
2023-04-17T12:28:45.389Z,7.88
2023-04-17T12:31:12.752Z,7.95
2023-04-17T12:33:39.690Z,7.95
2023-04-17T12:36:06.955Z,8.30
2023-04-17T12:38:34.041Z,7.35
2023-04-17T12:41:01.000Z,7.53
2023-04-17T12:43:27.925Z,8.25
2023-04-17T12:45:54.843Z,7.88
2023-04-17T12:48:21.767Z,8.77
2023-04-17T12:50:48.596Z,8.35
2023-04-17T12:53:15.743Z,9.13
2023-04-17T12:55:44.334Z,8.65
2023-04-17T12:58:12.958Z,12.15
2023-04-17T13:00:43.468Z,10.45
2023-04-17T13:03:11.836Z,9.65
2023-04-17T13:05:39.407Z,10.80
2023-04-17T13:08:06.139Z,10.05
2023-04-17T13:10:34.322Z,8.07
2023-04-17T13:13:02.282Z,8.60
2023-04-17T13:15:29.038Z,8.98
2023-04-17T13:17:56.192Z,8.23
2023-04-17T13:20:23.213Z,9.75
2023-04-17T13:22:49.998Z,9.25
2023-04-17T13:25:17.020Z,10.20
2023-04-17T13:27:43.950Z,9.50
2023-04-17T13:30:11.736Z,9.32
2023-04-17T13:32:40.430Z,9.73
2023-04-17T13:35:09.642Z,9.52
2023-04-17T13:37:36.677Z,10.55
2023-04-17T13:40:05.139Z,11.25
2023-04-17T13:42:32.057Z,9.07
2023-04-17T13:44:58.745Z,9.60
2023-04-17T13:47:25.603Z,8.75
2023-04-17T13:49:52.355Z,9.52
2023-04-17T13:52:19.108Z,8.10
2023-04-17T13:54:45.864Z,9.55
2023-04-17T13:57:14.675Z,8.40
2023-04-17T13:59:41.471Z,8.20
2023-04-17T14:02:09.798Z,8.80
2023-04-17T14:04:36.740Z,10.18
2023-04-17T14:07:04.682Z,7.05
2023-04-17T14:09:31.445Z,12.10
2023-04-17T14:11:58.232Z,8.32
2023-04-17T14:14:25.084Z,8.70
2023-04-17T14:16:52.026Z,8.25
2023-04-17T14:19:19.006Z,12.57
2023-04-17T14:21:45.977Z,10.55
2023-04-17T14:24:12.864Z,10.75
2023-04-17T14:26:39.926Z,8.68
2023-04-17T14:29:06.737Z,8.77
2023-04-17T14:31:33.596Z,10.55
2023-04-17T14:34:00.782Z,11.52
2023-04-17T14:36:27.641Z,9.25
2023-04-17T14:38:54.839Z,11.23
2023-04-17T14:41:21.617Z,8.90
2023-04-17T14:43:48.440Z,9.48
2023-04-17T14:46:15.436Z,8.45
2023-04-17T14:48:54.678Z,10.23
2023-04-17T14:51:23.041Z,9.25
2023-04-17T14:53:51.270Z,8.20
2023-04-17T14:56:18.078Z,9.57
2023-04-17T14:58:45.094Z,9.88
2023-04-17T15:01:11.814Z,11.88
2023-04-17T15:03:38.901Z,10.98
2023-04-17T15:06:05.853Z,10.77
2023-04-17T15:08:32.668Z,12.15
2023-04-17T15:10:59.473Z,11.52
2023-04-17T15:13:26.336Z,9.48
2023-04-17T15:15:53.487Z,11.93
2023-04-17T15:18:20.212Z,12.00
2023-04-17T15:20:47.180Z,11.18
2023-04-17T15:23:13.956Z,10.07
2023-04-17T15:25:41.187Z,12.07
2023-04-17T15:28:07.956Z,11.70
2023-04-17T15:30:34.819Z,11.48
2023-04-17T15:33:01.601Z,8.82
2023-04-17T15:35:28.505Z,13.70
2023-04-17T15:37:55.244Z,12.27
2023-04-17T15:40:22.243Z,12.10
2023-04-17T15:42:49.080Z,9.85
2023-04-17T15:45:16.096Z,11.10
2023-04-17T15:47:43.042Z,12.60
2023-04-17T15:50:10.960Z,9.93
2023-04-17T15:52:38.595Z,13.43
2023-04-17T15:55:05.855Z,11.40
2023-04-17T15:57:32.663Z,12.73
2023-04-17T15:59:59.478Z,11.57
2023-04-17T16:02:26.349Z,14.00
2023-04-17T16:04:53.256Z,12.80
2023-04-17T16:07:20.073Z,14.18
2023-04-17T16:09:48.050Z,16.42
2023-04-17T16:12:14.981Z,18.05
2023-04-17T16:14:41.780Z,16.95
2023-04-17T16:17:08.574Z,15.18
2023-04-17T16:19:35.565Z,16.58
2023-04-17T16:22:02.425Z,16.08
2023-04-17T16:24:29.248Z,13.20
2023-04-17T16:26:58.259Z,16.15
2023-04-17T16:29:25.892Z,15.65
2023-04-17T16:31:53.975Z,13.65
2023-04-17T16:34:23.572Z,13.77
2023-04-17T16:36:50.591Z,18.45
2023-04-17T16:39:17.479Z,15.93
2023-04-17T16:41:44.297Z,15.35
2023-04-17T16:44:11.163Z,13.25
2023-04-17T16:46:55.280Z,14.82
2023-04-17T16:49:24.792Z,13.90
2023-04-17T16:51:51.744Z,15.25
2023-04-17T16:54:20.438Z,16.58
2023-04-17T16:56:48.622Z,14.18
2023-04-17T16:59:15.972Z,14.98
2023-04-17T17:01:42.840Z,14.18
2023-04-17T17:04:09.758Z,15.23
2023-04-17T17:06:36.717Z,14.88
2023-04-17T17:09:03.805Z,17.20
2023-04-17T17:11:30.749Z,19.20
2023-04-17T17:13:57.822Z,17.65
2023-04-17T17:16:25.005Z,14.43
2023-04-17T17:18:51.937Z,13.32
2023-04-17T17:21:18.886Z,15.40
2023-04-17T17:23:45.650Z,16.48
2023-04-17T17:26:12.564Z,13.07
2023-04-17T17:28:39.476Z,18.33
2023-04-17T17:31:08.187Z,17.50
2023-04-17T17:33:35.970Z,16.42
2023-04-17T17:36:03.974Z,14.98
2023-04-17T17:38:32.713Z,14.13
2023-04-17T17:40:59.886Z,18.58
2023-04-17T17:43:29.890Z,16.40
2023-04-17T17:45:56.620Z,17.13
2023-04-17T17:48:23.390Z,17.85
2023-04-17T17:50:53.635Z,16.75
2023-04-17T17:53:25.517Z,15.45
2023-04-17T17:55:57.196Z,20.50
2023-04-17T17:58:24.358Z,18.05
2023-04-17T18:00:51.243Z,19.70
2023-04-17T18:03:18.443Z,15.82
2023-04-17T18:05:46.611Z,15.70
2023-04-17T18:08:14.199Z,17.05
2023-04-17T18:10:41.096Z,18.30
2023-04-17T18:13:10.494Z,16.63
2023-04-17T18:18:18.205Z,16.58
2023-04-17T18:20:45.445Z,19.00
2023-04-17T18:23:12.376Z,15.80
2023-04-17T18:25:39.706Z,16.02
2023-04-17T18:28:06.791Z,17.08
2023-04-17T18:30:33.667Z,19.02
2023-04-17T18:33:00.732Z,17.40
2023-04-17T18:35:30.241Z,19.77
2023-04-17T18:37:59.554Z,16.52
2023-04-17T18:40:26.318Z,17.65
2023-04-17T18:42:53.598Z,21.13
2023-04-17T18:45:20.363Z,20.08
2023-04-17T18:47:48.371Z,17.98
2023-04-17T18:50:15.469Z,17.95
2023-04-17T18:52:46.821Z,15.63
2023-04-17T18:55:17.487Z,18.00
2023-04-17T18:57:44.655Z,22.55
2023-04-17T19:00:12.186Z,19.25
2023-04-17T19:02:42.633Z,18.75
2023-04-17T19:05:10.120Z,21.73
2023-04-17T19:07:36.948Z,18.17
2023-04-17T19:10:04.511Z,17.98
2023-04-17T19:12:31.557Z,18.20
2023-04-17T19:14:58.538Z,18.25
2023-04-17T19:17:25.641Z,19.05
2023-04-17T19:19:52.563Z,23.15
2023-04-17T19:22:19.538Z,19.10
2023-04-17T19:24:49.805Z,18.92
2023-04-17T19:27:17.166Z,21.05
2023-04-17T19:29:44.256Z,22.75
2023-04-17T19:32:12.111Z,20.30
2023-04-17T19:34:39.146Z,21.45
2023-04-17T19:37:05.977Z,19.42
2023-04-17T19:39:35.464Z,20.83
2023-04-17T19:42:02.826Z,20.35
2023-04-17T19:44:29.719Z,17.30
2023-04-17T19:46:56.921Z,20.40
2023-04-17T19:49:23.678Z,20.67
2023-04-17T19:51:50.628Z,15.20
2023-04-17T19:54:17.519Z,20.98
2023-04-17T19:56:44.305Z,18.35
2023-04-17T19:59:13.228Z,17.00
2023-04-17T20:01:42.941Z,17.40
2023-04-17T20:04:10.869Z,18.58
2023-04-17T20:06:39.431Z,18.77
2023-04-17T20:09:06.784Z,16.73
2023-04-17T20:11:33.986Z,13.93
2023-04-17T20:14:00.809Z,14.43
2023-04-17T20:16:27.928Z,15.13
2023-04-17T20:18:56.815Z,16.63
2023-04-17T20:21:23.831Z,17.58
2023-04-17T20:23:50.642Z,17.23
2023-04-17T20:26:17.465Z,16.25
2023-04-17T20:28:44.431Z,16.27
2023-04-17T20:31:11.667Z,15.73
2023-04-17T20:33:38.720Z,15.27
2023-04-17T20:36:06.043Z,17.88
2023-04-17T20:38:32.994Z,14.13
2023-04-17T20:40:59.821Z,15.52
2023-04-17T20:43:26.645Z,14.63
2023-04-17T20:45:53.536Z,15.82
2023-04-17T20:48:20.481Z,15.13
2023-04-17T20:50:47.444Z,14.43
2023-04-17T20:53:14.302Z,17.65
2023-04-17T20:55:41.365Z,20.67
2023-04-17T20:58:08.288Z,15.77
2023-04-17T21:00:35.136Z,16.65
2023-04-17T21:03:02.087Z,18.33
2023-04-17T21:05:29.181Z,17.13
2023-04-17T21:07:57.712Z,16.02
2023-04-17T21:10:24.628Z,16.63
2023-04-17T21:12:51.404Z,17.13
2023-04-17T21:15:18.253Z,16.15
2023-04-17T21:17:47.646Z,16.30
2023-04-17T21:20:14.786Z,17.40
2023-04-17T21:22:41.586Z,17.55
2023-04-17T21:25:08.670Z,19.75
2023-04-17T21:27:35.718Z,22.63
2023-04-17T21:30:03.868Z,20.55
2023-04-17T21:32:30.662Z,18.33
2023-04-17T21:34:57.558Z,19.05
2023-04-17T21:37:24.338Z,20.08
2023-04-17T21:39:51.130Z,19.42
2023-04-17T21:42:17.948Z,24.58
2023-04-17T21:44:44.731Z,22.05
2023-04-17T21:47:11.532Z,20.00
2023-04-17T21:49:38.224Z,24.30
2023-04-17T21:52:04.993Z,22.05
2023-04-17T21:54:32.948Z,27.20
2023-04-17T21:56:59.629Z,24.25
2023-04-17T21:59:26.338Z,22.73
2023-04-17T22:01:53.192Z,23.45
2023-04-17T22:04:19.971Z,19.35
2023-04-17T22:06:46.954Z,21.45
2023-04-17T22:09:13.945Z,23.73
2023-04-17T22:11:40.892Z,21.95
2023-04-17T22:14:07.576Z,23.20
2023-04-17T22:16:34.447Z,23.50
2023-04-17T22:19:01.325Z,21.67
2023-04-17T22:21:28.112Z,22.40
2023-04-17T22:23:54.848Z,21.95
2023-04-17T22:26:21.860Z,22.67
2023-04-17T22:28:48.621Z,26.15
2023-04-17T22:31:15.876Z,27.13
2023-04-17T22:33:43.120Z,25.33
2023-04-17T22:36:10.089Z,26.75
2023-04-17T22:38:37.029Z,25.77
2023-04-17T22:41:04.809Z,25.85
2023-04-17T22:43:31.498Z,27.77
2023-04-17T22:45:58.325Z,32.67
2023-04-17T22:48:25.616Z,30.17
2023-04-17T22:50:52.406Z,33.25
2023-04-17T22:53:19.101Z,32.33
2023-04-17T22:55:46.163Z,32.85
2023-04-17T22:58:12.900Z,37.25
2023-04-17T23:00:39.666Z,37.35
2023-04-17T23:03:06.469Z,33.38
2023-04-17T23:05:33.442Z,39.35
2023-04-17T23:08:00.418Z,38.50
2023-04-17T23:10:27.191Z,38.63
2023-04-17T23:12:53.992Z,36.92
2023-04-17T23:15:21.064Z,37.35
2023-04-17T23:17:47.841Z,36.63
2023-04-17T23:20:14.649Z,38.88
2023-04-17T23:22:41.418Z,39.30
2023-04-17T23:25:08.801Z,37.03
2023-04-17T23:27:35.605Z,36.28
2023-04-17T23:30:02.637Z,41.25
2023-04-17T23:32:29.378Z,38.65
2023-04-17T23:34:56.296Z,39.45
2023-04-17T23:37:23.103Z,37.70
2023-04-17T23:39:49.945Z,38.38
2023-04-17T23:42:16.909Z,37.97
2023-04-17T23:44:43.866Z,38.40
2023-04-17T23:47:11.460Z,32.78
2023-04-17T23:49:38.421Z,38.88
2023-04-17T23:52:05.300Z,38.33
2023-04-17T23:54:32.142Z,42.88
2023-04-17T23:56:58.920Z,40.58
2023-04-17T23:59:25.631Z,42.80
